ADDS METAR Data INFO
IDs: Format: Raw Decoded Include TAF

Data at: 0216 UTC 18 Jan 2018

KHRJ 180155Z AUTO 35007KT 7SM -SN BKN017 OVC037 M03/M04 A3023 RMK AO2 T10261042
KHRJ 180135Z AUTO 35005G15KT 5SM BR OVC015 M02/M04 A3023 RMK AO2 T10251040
KHRJ 180115Z AUTO 35009KT 7SM -SN OVC011 M02/M03 A3023 RMK AO2 T10221035
KHRJ 180055Z AUTO 35008KT 5SM -SN BKN011 BKN044 OVC050 M02/M03 A3022 RMK AO2 T10201031
KHRJ 180035Z AUTO 36008KT 330V030 7SM -SN SCT011 BKN042 OVC050 M02/M03 A3022 RMK AO2 T10201033
KHRJ 180015Z AUTO 01008G15KT 1 3/4SM -SN BKN009 BKN016 OVC046 M02/M03 A3022 RMK AO2 T10201030
KHRJ 172355Z AUTO 36011G19KT 1/2SM +SN OVC007 M02/M02 A3021 RMK AO2 60017 T10171024 10028 21017
KHRJ 172335Z AUTO 36008KT 1SM SN BKN003 OVC010 00/M01 A3020 RMK AO2 T10051011
KHRJ 172315Z AUTO 35009G14KT 1SM SN OVC005 00/00 A3020 RMK AO2 T00011001
KHRJ 172255Z AUTO 36007KT 1 1/4SM -SN OVC003 00/00 A3018 RMK AO2 T00020000
KHRJ 172235Z AUTO 01006KT 1SM SN OVC003 00/00 A3018 RMK AO2 T00030000
KHRJ 172215Z AUTO 36007KT 1/2SM SN OVC003 01/00 A3017 RMK AO2 T00050000
KHRJ 172155Z AUTO 36005KT 1/2SM -SN OVC003 01/00 A3018 RMK AO2 P0001 T00050000
KHRJ 172135Z AUTO 36004KT 1/2SM SN OVC003 01/00 A3017 RMK AO2 P0001 T00050000
KHRJ 172115Z AUTO 36005KT 3/4SM -SN OVC003 01/00 A3017 RMK AO2 P0001 T00060000
KHRJ 172055Z AUTO 04007KT 1 1/4SM -SN OVC003 01/00 A3016 RMK AO2 P0004 60016 T00080002
KHRJ 172035Z AUTO 05006KT 1 1/4SM -SN OVC003 01/00 A3016 RMK AO2 P0003 T00100003
KHRJ 172015Z AUTO 05005KT 1 1/4SM -SN OVC003 01/01 A3016 RMK AO2 P0002 T00130005
KHRJ 171955Z AUTO 03005KT 2SM -RA OVC005 02/01 A3018 RMK AO2 P0007 T00190010
KHRJ 171935Z AUTO 03005KT 2 1/2SM -RA BKN007 OVC016 03/02 A3018 RMK AO2 P0004 T00250015
KHRJ 171915Z AUTO 06004KT 3SM -RA SCT007 SCT013 OVC028 03/02 A3018 RMK AO2 P0002 T00270017
KHRJ 171855Z AUTO 07007KT 3SM -RA SCT007 SCT013 OVC026 03/02 A3018 RMK AO2 P0005 T00270017
KHRJ 171835Z AUTO 07007KT 3SM -RA SCT007 BKN016 OVC025 03/02 A3019 RMK AO2 P0003 T00270017
KHRJ 171815Z AUTO 06007KT 3SM -RA SCT007 BKN021 OVC034 03/02 A3020 RMK AO2 P0001 T00260016
KHRJ 171755Z AUTO 07007KT 4SM -RA SCT007 BKN029 OVC035 03/02 A3022 RMK AO2 P0002 60002 T00250015 10042 20024
KHRJ 171735Z AUTO 03004KT 3SM -RA OVC007 03/01 A3024 RMK AO2 P0001 T00250012
KHRJ 171715Z AUTO 34004KT 5SM -RA BKN009 BKN015 OVC037 03/01 A3025 RMK AO2 T00270008
KHRJ 171655Z AUTO 35006KT 7SM -RA SCT012 BKN040 OVC048 03/00 A3025 RMK AO2 T00300000
KHRJ 171635Z AUTO 35007KT 10SM -DZ SCT014 SCT049 OVC060 04/00 A3026 RMK AO2 T00351005
KHRJ 171615Z AUTO 35007KT 10SM OVC060 04/M01 A3027 RMK AO2 T00401011
KHRJ 171555Z AUTO 34006KT 10SM OVC060 04/M02 A3028 RMK AO2 T00401016
KHRJ 171535Z AUTO 36007KT 10SM OVC060 04/M02 A3028 RMK AO2 T00401020
KHRJ 171515Z AUTO 36004KT 10SM OVC060 04/M02 A3028 RMK AO2 T00401022
KHRJ 171455Z AUTO 36004KT 10SM OVC060 04/M03 A3027 RMK AO2 T00401028
KHRJ 171435Z AUTO 36003KT 10SM OVC060 04/M03 A3027 RMK AO2 T00411027
KHRJ 171415Z AUTO 01005KT 10SM OVC060 04/M03 A3026 RMK AO2 T00411028
KHRJ 171355Z AUTO 35004KT 10SM OVC060 04/M03 A3026 RMK AO2 T00391035
KHRJ 171335Z AUTO 36003KT 10SM OVC060 04/M03 A3026 RMK AO2 T00361035
KHRJ 171315Z AUTO 36003KT 10SM OVC060 04/M03 A3026 RMK AO2 T00351034
KHRJ 171255Z AUTO 03004KT 03/M03 A3025 RMK AO2 T00301031
KHRJ 171235Z AUTO 04003KT 10SM OVC060 03/M03 A3025 RMK AO2 T00301032
KHRJ 171215Z AUTO 00000KT 10SM OVC060 03/M03 A3025 RMK AO2 T00261029
KHRJ 171155Z AUTO 00000KT 10SM OVC060 02/M02 A3025 RMK AO2 T00241025 10024 20002
KHRJ 171135Z AUTO 00000KT 10SM OVC060 02/M01 A3025 RMK AO2 T00181015
KHRJ 171115Z AUTO 00000KT 10SM OVC060 02/M02 A3025 RMK AO2 T00161020
KHRJ 171055Z AUTO 00000KT 10SM OVC060 01/M02 A3025 RMK AO2 T00131018
KHRJ 171035Z AUTO 00000KT 10SM OVC060 01/M02 A3025 RMK AO2 T00121021
KHRJ 171015Z AUTO 00000KT 10SM BKN060 01/M02 A3025 RMK AO2 T00081023
KHRJ 170955Z AUTO 00000KT 10SM SCT070 01/M03 A3025 RMK AO2 T00101028
KHRJ 170935Z AUTO 00000KT 10SM SCT070 SCT110 01/M03 A3025 RMK AO2 T00111026
KHRJ 170915Z AUTO 00000KT 10SM SCT070 SCT110 01/M02 A3026 RMK AO2 T00061025
KHRJ 170855Z AUTO 00000KT 10SM SCT120 01/M02 A3026 RMK AO2 T00061025
KHRJ 170835Z AUTO 00000KT 10SM SCT120 00/M03 A3027 RMK AO2 T00041030
KHRJ 170815Z AUTO 00000KT 10SM CLR 01/M03 A3027 RMK AO2 T00081033
KHRJ 170755Z AUTO 00000KT 10SM CLR 01/M04 A3027 RMK AO2 T00071037
KHRJ 170735Z AUTO 00000KT 10SM CLR 01/M03 A3028 RMK AO2 T00051035
KHRJ 170715Z AUTO 00000KT 10SM CLR 00/M03 A3028 RMK AO2 T00021034
KHRJ 170655Z AUTO 00000KT 10SM CLR 01/M04 A3028 RMK AO2 T00101038
KHRJ 170635Z AUTO 00000KT 10SM CLR 01/M04 A3028 RMK AO2 T00071037
KHRJ 170615Z AUTO 00000KT 10SM CLR 00/M03 A3028 RMK AO2 T00031034
KHRJ 170555Z AUTO 00000KT 10SM CLR 00/M04 A3028 RMK AO2 T00021036 10057 20002 400961055
KHRJ 170535Z AUTO 00000KT 10SM CLR 01/M03 A3029 RMK AO2 T00061032
KHRJ 170515Z AUTO 00000KT 10SM CLR 01/M03 A3029 RMK AO2 T00061033
KHRJ 170455Z AUTO 00000KT 10SM CLR 01/M04 A3029 RMK AO2 T00131040
KHRJ 170435Z AUTO 00000KT 10SM CLR 02/M04 A3030 RMK AO2 T00171045
KHRJ 170415Z AUTO 00000KT 10SM CLR 01/M04 A3031 RMK AO2 T00111044
KHRJ 170355Z AUTO 00000KT 10SM CLR 02/M04 A3032 RMK AO2 T00151040
KHRJ 170335Z AUTO 00000KT 10SM CLR 01/M04 A3032 RMK AO2 T00101044
KHRJ 170315Z AUTO 00000KT 10SM CLR 01/M05 A3032 RMK AO2 T00141050
KHRJ 170255Z AUTO 00000KT 10SM CLR 01/M04 A3033 RMK AO2 T00121040
KHRJ 170235Z AUTO 00000KT 10SM CLR 01/M04 A3034 RMK AO2 T00121045
KHRJ 170215Z AUTO 00000KT 10SM CLR 02/M04 A3034 RMK AO2 T00161043
KHRJ 170155Z AUTO 00000KT 10SM CLR 02/M04 A3034 RMK AO2 T00241045
KHRJ 170135Z AUTO 00000KT 10SM CLR 03/M05 A3034 RMK AO2 T00261048
KHRJ 170115Z AUTO 00000KT 10SM CLR 02/M04 A3034 RMK AO2 T00241044
KHRJ 170055Z AUTO 00000KT 10SM CLR 03/M05 A3035 RMK AO2 T00321053
KHRJ 170035Z AUTO 00000KT 10SM CLR 04/M05 A3035 RMK AO2 T00351050
KHRJ 170015Z AUTO 00000KT 10SM CLR 05/M06 A3035 RMK AO2 T00481065
KHRJ 162355Z AUTO 00000KT 10SM CLR 06/M07 A3036 RMK AO2 T00581068 10096 20056
KHRJ 162335Z AUTO 17003KT 10SM CLR 06/M06 A3035 RMK AO2 T00561065
KHRJ 162315Z AUTO 00000KT 10SM CLR 06/M07 A3035 RMK AO2 T00601070
KHRJ 162255Z AUTO 00000KT 10SM CLR 07/M07 A3035 RMK AO2 T00691073
KHRJ 162235Z AUTO 15003KT 10SM CLR 07/M07 A3035 RMK AO2 T00671069
KHRJ 162215Z AUTO 00000KT 10SM CLR 08/M07 A3036 RMK AO2 T00801074
KHRJ 162155Z AUTO 00000KT 10SM CLR 09/M08 A3036 RMK AO2 T00871081
KHRJ 162135Z AUTO 00000KT 10SM CLR 09/M09 A3036 RMK AO2 T00891089
KHRJ 162115Z AUTO 00000KT 10SM CLR 09/M08 A3036 RMK AO2 T00911083
KHRJ 162055Z AUTO 32003KT 10SM CLR 09/M09 A3036 RMK AO2 T00921090
KHRJ 162035Z AUTO 00000KT 10SM CLR 09/M09 A3036 RMK AO2 T00931086
KHRJ 162015Z AUTO 00000KT 10SM CLR 09/M09 A3036 RMK AO2 T00911091
KHRJ 161955Z AUTO 00000KT 10SM CLR 09/M09 A3036 RMK AO2 T00921092
KHRJ 161935Z AUTO 00000KT 10SM CLR 09/M09 A3037 RMK AO2 T00901094
KHRJ 161915Z AUTO 00000KT 10SM CLR 09/M10 A3037 RMK AO2 T00871097
KHRJ 161855Z AUTO 00000KT 10SM CLR 09/M10 A3037 RMK AO2 T00921096
KHRJ 161815Z AUTO 36004KT 10SM CLR 08/M09 A3040 RMK AO2 T00801094
KHRJ 161755Z AUTO 00000KT 10SM CLR 07/M10 A3041 RMK AO2 T00691101 10072 21055
KHRJ 161735Z AUTO 31004KT 10SM CLR 07/M09 A3042 RMK AO2 T00701094
KHRJ 161715Z AUTO 00000KT 10SM CLR 06/M09 A3043 RMK AO2 T00601091
KHRJ 161655Z AUTO 00000KT 10SM CLR 06/M09 A3045 RMK AO2 T00611094
KHRJ 161635Z AUTO 00000KT 10SM CLR 05/M09 A3046 RMK AO2 T00511091
KHRJ 161615Z AUTO 00000KT 10SM CLR 05/M09 A3047 RMK AO2 T00471092
KHRJ 161555Z AUTO 00000KT 10SM CLR 04/M07 A3048 RMK AO2 T00391070
KHRJ 161535Z AUTO 30003KT 10SM CLR 03/M06 A3049 RMK AO2 T00311058
KHRJ 161515Z AUTO 00000KT 10SM CLR 02/M06 A3049 RMK AO2 T00201060
KHRJ 161455Z AUTO 00000KT 10SM CLR 02/M05 A3049 RMK AO2 T00151055
KHRJ 161435Z AUTO 00000KT 10SM CLR 00/M06 A3049 RMK AO2 T00041058